Latest Coastal Weather Observations for Portland Harbour

IDV60701

Issued at 5:15 pm EDT Friday 31 October 2014 (issued every 10 minutes, with the page automatically refreshed every 10 minutes)

About coastal observations | Map of coastal stations | Coastal observations for VIC | Marine services | Other Formats
Station Details ID: 090192 Name: PORTLAND NTC AWS Lat: -38.34 Lon: 141.61 Height: 0.0 m
Data from the previous 72 hours. | See also: Recent months for locations in Victoria
Date/Time
EDT
Temp

°C
Wind Pressure Rain
since 9am
mm
Weather Cloud Vis
km
Sea
Height
m
Swell
Dir
 
Speed
knots
Gust
knots
hPa Trend Height
m
Period
s
Dir
31/05:02pm 25.9 W 18 29 997.0 - - - - - - - - -
31/05:00pm 26.1 W 19 29 996.9 - - - - - - - - -
31/04:41pm 27.3 W 20 27 996.9 - - - - - - - - -
31/04:30pm 30.0 NNW 16 25 996.9 - - - - - - - - -
31/04:00pm 29.7 NNW 17 27 997.3 - - - - - - - - -
31/03:56pm 29.6 NNW 17 27 997.4 - - - - - - - - -
31/03:30pm 29.3 NNW 21 28 997.7 - - - - - - - - -
31/03:00pm 29.0 NNW 25 37 998.2 - - - - - - - - -
31/02:30pm 27.8 NNW 22 34 998.9 - - - - - - - - -
31/02:24pm 27.4 NNW 18 31 999.1 - - - - - - - - -
31/02:00pm 26.7 NNW 19 26 999.6 - - - - - - - - -
31/01:48pm 26.8 NNW 20 30 999.8 - - - - - - - - -
31/01:30pm 25.8 NNW 22 28 1000.0 - - - - - - - - -
31/01:10pm 25.2 N 25 36 1000.2 - - - - - - - - -
31/01:00pm 25.1 N 27 34 1000.4 - - - - - - - - -
31/12:30pm 24.2 N 27 36 1001.0 - - - - - - - - -
31/12:07pm 23.9 N 23 35 1001.5 - - - - - - - - -
31/12:00pm 22.8 N 24 34 1001.7 - - - - - - - - -
31/11:48am 23.1 N 21 32 1001.9 - - - - - - - - -
31/11:30am 22.1 N 21 27 1002.2 - - - - - - - - -
31/11:00am 21.4 N 21 27 1002.9 - - - - - - - - -
31/10:30am 19.4 N 14 18 1003.6 - - - - - - - - -
31/10:00am 16.8 NNE 6 8 1004.2 - - - - - - - - -
31/09:30am 15.7 N 6 8 1004.7 - - - - - - - - -
31/09:00am 14.8 N 11 13 1005.1 - - - - - - - - -
31/08:30am 14.0 N 7 9 1005.6 - - - - - - - - -
31/08:00am 13.3 N 8 10 1005.9 - - - - - - - - -
31/07:30am 12.7 N 6 8 1006.5 - - - - - - - - -
31/07:00am 12.1 N 6 8 1006.8 - - - - - - - - -
31/06:30am 11.9 N 9 11 1007.2 - - - - - - - - -
31/06:00am 11.8 N 5 7 1007.6 - - - - - - - - -
31/05:30am 11.7 N 3 4 1007.7 - - - - - - - - -
31/05:00am 12.0 N 7 9 1008.2 - - - - - - - - -
31/04:30am 11.9 N 8 10 1008.7 - - - - - - - - -
31/04:00am 11.5 N 10 12 1009.3 - - - - - - - - -
31/03:30am 11.7 N 10 12 1009.8 - - - - - - - - -
31/03:00am 11.6 N 4 9 1010.0 - - - - - - - - -
31/02:30am 10.1 SSW 3 5 1010.8 - - - - - - - - -
31/02:00am 11.6 NNE 2 6 1011.2 - - - - - - - - -
31/01:30am 10.0 W 3 3 1012.1 - - - - - - - - -
31/01:00am 10.3 WSW 2 4 1012.6 - - - - - - - - -
31/12:30am 11.1 W 1 3 1012.4 - - - - - - - - -
31/12:00am 12.5 N 5 6 1012.7 - - - - - - - - -
 
Date/Time
EDT
Temp

°C
Wind Pressure Rain
since 9am
mm
Weather Cloud Vis
km
Sea
Height
m
Swell
Dir
 
Speed
knots
Gust
knots
hPa Trend Height
m
Period
s
Dir
30/11:30pm 12.7 N 3 5 1013.0 - - - - - - - - -
30/11:00pm 12.5 N 2 4 1013.3 - - - - - - - - -
30/10:30pm 12.3 WNW 1 2 1013.8 - - - - - - - - -
30/10:00pm 12.3 W 4 6 1013.9 - - - - - - - - -
30/09:30pm 13.1 W 3 5 1013.5 - - - - - - - - -
30/09:00pm 13.6 WSW 5 7 1013.5 - - - - - - - - -
30/08:30pm 14.0 WSW 5 8 1013.3 - - - - - - - - -
30/08:00pm 14.6 WSW 7 11 1013.2 - - - - - - - - -
30/07:30pm 15.1 WSW 10 14 1012.9 - - - - - - - - -
30/07:00pm 15.5 WSW 11 14 1012.8 - - - - - - - - -
30/06:30pm 16.1 WSW 12 16 1012.8 - - - - - - - - -
30/06:00pm 16.1 WSW 12 17 1012.7 - - - - - - - - -
30/05:30pm 16.0 WSW 13 18 1012.9 - - - - - - - - -
30/05:00pm 16.3 W 11 16 1013.2 - - - - - - - - -
30/04:30pm 16.0 W 14 19 1013.5 - - - - - - - - -
30/04:00pm 16.3 W 12 19 1013.5 - - - - - - - - -
30/03:30pm 16.6 WSW 12 19 1013.6 - - - - - - - - -
30/03:00pm 16.8 W 11 16 1013.9 - - - - - - - - -
30/02:30pm 16.4 WSW 13 20 1014.2 - - - - - - - - -
30/02:00pm 16.5 W 11 16 1014.5 - - - - - - - - -
30/01:30pm 16.0 W 12 18 1014.5 - - - - - - - - -
30/01:00pm 15.6 W 12 18 1014.6 - - - - - - - - -
30/12:30pm 15.6 W 12 18 1014.8 - - - - - - - - -
30/12:00pm 15.1 W 11 15 1014.9 - - - - - - - - -
30/11:30am 15.4 W 11 15 1015.2 - - - - - - - - -
30/11:00am 15.1 WNW 11 16 1015.2 - - - - - - - - -
30/10:30am 14.9 W 9 15 1015.1 - - - - - - - - -
30/10:00am 14.5 W 11 16 1015.4 - - - - - - - - -
30/09:30am 13.6 W 7 10 1015.4 - - - - - - - - -
30/09:00am 12.6 W 5 8 1015.8 - - - - - - - - -
30/08:30am 13.0 NW 7 9 1015.5 - - - - - - - - -
30/08:00am 13.1 NW 5 8 1014.9 - - - - - - - - -
30/07:30am 13.1 NNW 8 12 1014.5 - - - - - - - - -
30/07:00am 13.5 NNW 6 10 1014.3 - - - - - - - - -
30/06:30am 13.6 WNW 2 3 1014.4 - - - - - - - - -
30/06:00am 13.8 NNW 3 5 1014.1 - - - - - - - - -
30/05:30am 13.9 NW 4 6 1013.7 - - - - - - - - -
30/05:00am 14.2 WSW 7 10 1014.1 - - - - - - - - -
30/04:30am 14.0 WSW 8 12 1013.9 - - - - - - - - -
30/04:00am 14.1 W 8 13 1014.2 - - - - - - - - -
30/03:30am 14.0 W 7 12 1014.4 - - - - - - - - -
30/03:00am 14.1 W 9 12 1014.5 - - - - - - - - -
30/02:30am 13.8 W 5 7 1014.4 - - - - - - - - -
30/02:00am 13.5 W 4 7 1014.6 - - - - - - - - -
30/01:30am 13.4 NW 4 6 1014.8 - - - - - - - - -
30/01:00am 13.1 WNW 3 5 1015.2 - - - - - - - - -
30/12:30am 13.4 W 3 5 1015.4 - - - - - - - - -
30/12:00am 13.6 W 4 6 1015.8 - - - - - - - - -
 
Date/Time
EDT
Temp

°C
Wind Pressure Rain
since 9am
mm
Weather Cloud Vis
km
Sea
Height
m
Swell
Dir
 
Speed
knots
Gust
knots
hPa Trend Height
m
Period
s
Dir
29/11:30pm 13.7 WSW 9 11 1016.2 - - - - - - - - -
29/11:00pm 13.9 W 6 8 1016.3 - - - - - - - - -
29/10:30pm 13.6 WNW 5 9 1016.5 - - - - - - - - -
29/10:00pm 13.8 WNW 5 7 1016.4 - - - - - - - - -
29/09:30pm 13.7 WNW 7 10 1016.2 - - - - - - - - -
29/09:00pm 13.7 W 11 18 1016.3 - - - - - - - - -
29/08:30pm 14.0 W 8 11 1016.3 - - - - - - - - -
29/08:00pm 14.3 W 9 14 1016.3 - - - - - - - - -
29/07:30pm 14.4 WSW 10 16 1016.2 - - - - - - - - -
29/07:00pm 14.3 WSW 11 19 1015.9 - - - - - - - - -
29/06:30pm 15.0 W 15 22 1015.7 - - - - - - - - -
29/06:00pm 15.1 W 17 23 1015.7 - - - - - - - - -
29/05:40pm 16.6 W 15 27 1015.5 - - - - - - - - -
29/05:30pm 16.5 W 17 23 1015.3 - - - - - - - - -
29/05:00pm 16.2 WSW 18 26 1015.5 - - - - - - - - -
29/04:51pm 16.3 W 15 26 1015.5 - - - - - - - - -
29/04:30pm 16.0 W 17 24 1015.5 - - - - - - - - -
29/04:12pm 16.0 W 15 26 1015.5 - - - - - - - - -
29/04:00pm 15.9 W 16 23 1015.5 - - - - - - - - -
29/03:30pm 16.0 W 16 21 1015.7 - - - - - - - - -
29/03:00pm 16.4 W 16 21 1015.9 - - - - - - - - -
29/02:30pm 16.6 W 16 23 1016.0 - - - - - - - - -
29/02:00pm 16.4 W 13 21 1016.2 - - - - - - - - -
29/01:30pm 16.1 WNW 12 17 1016.4 - - - - - - - - -
29/01:00pm 15.5 NW 12 17 1016.7 - - - - - - - - -
29/12:30pm 15.2 NW 10 15 1017.0 - - - - - - - - -
29/12:00pm 15.2 WNW 11 17 1017.2 - - - - - - - - -
29/11:30am 14.9 WNW 13 19 1017.4 - - - - - - - - -
29/11:00am 14.4 NW 10 15 1017.6 - - - - - - - - -
29/10:30am 14.1 WNW 11 14 1017.7 - - - - - - - - -
29/10:00am 13.9 NNW 11 14 1017.6 - - - - - - - - -
29/09:30am 13.8 WNW 8 13 1017.7 - - - - - - - - -
29/09:00am 13.2 NNW 9 11 1017.8 - - - - - - - - -
29/08:30am 13.0 WNW 8 12 1017.8 - - - - - - - - -
29/08:00am 12.9 NNW 5 6 1017.6 - - - - - - - - -
29/07:30am 12.3 NW 6 10 1017.6 - - - - - - - - -
29/07:00am 12.2 NNW 7 9 1017.4 - - - - - - - - -
29/06:30am 12.2 NNW 7 9 1017.3 - - - - - - - - -
29/06:00am 12.3 NNW 7 8 1017.0 - - - - - - - - -
29/05:30am 12.4 NNW 6 8 1016.9 - - - - - - - - -
29/05:00am 13.0 W 4 7 1016.7 - - - - - - - - -
29/04:30am 12.2 NW 4 6 1016.9 - - - - - - - - -
29/04:00am 12.2 N 5 6 1016.8 - - - - - - - - -
29/03:30am 12.7 WNW 3 5 1016.8 - - - - - - - - -
29/03:00am 12.5 WNW 3 5 1017.1 - - - - - - - - -
29/02:30am 12.4 W 4 6 1017.1 - - - - - - - - -
29/02:00am 12.3 W 3 5 1017.2 - - - - - - - - -
29/01:30am 12.4 SW 7 11 1017.5 - - - - - - - - -
29/01:00am 12.4 NW 4 6 1017.7 - - - - - - - - -
29/12:30am 12.6 W 4 5 1017.7 - - - - - - - - -
29/12:00am 12.1 W 5 8 1017.8 - - - - - - - - -
 
Date/Time
EDT
Temp

°C
Wind Pressure Rain
since 9am
mm
Weather Cloud Vis
km
Sea
Height
m
Swell
Dir
 
Speed
knots
Gust
knots
hPa Trend Height
m
Period
s
Dir
28/11:30pm 12.1 W 4 5 1017.7 - - - - - - - - -
28/11:00pm 12.6 W 4 6 1017.7 - - - - - - - - -
28/10:30pm 13.1 WSW 7 10 1017.7 - - - - - - - - -
28/10:00pm 13.3 WSW 7 9 1017.7 - - - - - - - - -
28/09:30pm 13.3 SW 8 13 1017.6 - - - - - - - - -
28/09:00pm 13.1 SW 10 17 1017.5 - - - - - - - - -
28/08:30pm 13.3 WSW 10 15 1017.1 - - - - - - - - -
28/08:00pm 13.9 WSW 11 18 1016.7 - - - - - - - - -
28/07:30pm 14.0 W 10 17 1016.4 - - - - - - - - -
28/07:00pm 14.3 WSW 12 19 1016.1 - - - - - - - - -
28/06:30pm 14.4 WSW 15 21 1015.8 - - - - - - - - -
28/06:00pm 14.4 WSW 14 20 1015.7 - - - - - - - - -
28/05:30pm 14.4 WSW 16 24 1015.6 - - - - - - - - -

Other Formats:

Comma delimited format used in spreadsheet applications
http://www.bom.gov.au/fwo/IDV60701/IDV60701.95826.axf

JavaScript Object Notation format (JSON) in row-major order
http://www.bom.gov.au/fwo/IDV60701/IDV60701.95826.json